ADDS METAR Data INFO
IDs: Format: Raw Decoded Include TAF

Data at: 2209 UTC 24 Jun 2018

KOZW 242155Z AUTO 03006KT 10SM SCT028 SCT040 SCT060 23/15 A3000 RMK AO2 T02300151
KOZW 242135Z AUTO 00000KT 10SM SCT024 BKN030 BKN040 22/16 A3001 RMK AO2 T02180161
KOZW 242115Z AUTO 00000KT 10SM SCT024 BKN030 OVC040 22/17 A3001 RMK AO2 T02150165
KOZW 242055Z AUTO 33006KT 10SM SCT024 BKN031 OVC050 22/17 A3001 RMK AO2 T02240165
KOZW 242035Z AUTO 33005KT 10SM SCT022 BKN048 OVC050 22/16 A3000 RMK AO2 T02200164
KOZW 242015Z AUTO 30004KT 10SM SCT027 BKN036 OVC048 21/16 A2999 RMK AO2 T02090163
KOZW 241955Z AUTO 33004KT 10SM BKN023 OVC031 20/16 A2998 RMK AO2 T02020164
KOZW 241935Z AUTO 36005KT 10SM BKN020 OVC026 21/16 A2998 RMK AO2 T02050164
KOZW 241915Z AUTO 35003KT 10SM SCT015 SCT020 OVC026 21/17 A2998 RMK AO2 T02070166
KOZW 241855Z AUTO 00000KT 10SM OVC017 20/17 A2997 RMK AO2 T01950168
KOZW 241835Z AUTO 31004KT 10SM OVC017 20/17 A2996 RMK AO2 T01970166
KOZW 241815Z AUTO 29004KT 10SM OVC015 20/17 A2995 RMK AO2 T01950165
KOZW 241755Z AUTO 00000KT 10SM BKN012 OVC018 19/16 A2994 RMK AO2 T01880164 10194 20165
KOZW 241735Z AUTO 34003KT 10SM OVC010 19/17 A2994 RMK AO2 T01860166
KOZW 241715Z AUTO 33005KT 7SM OVC006 19/17 A2993 RMK AO2 T01850167
KOZW 241655Z AUTO 32004KT 5SM BR OVC006 18/17 A2993 RMK AO2 T01820168
KOZW 241635Z AUTO 31004KT 2 1/2SM BR OVC006 18/17 A2993 RMK AO2 T01820173
KOZW 241615Z AUTO 31005KT 2SM BR OVC010 18/17 A2993 RMK AO2 T01820165
KOZW 241555Z AUTO 30005KT 5SM HZ OVC012 19/16 A2993 RMK AO2 T01890162
KOZW 241535Z AUTO 29004KT 7SM OVC012 19/16 A2992 RMK AO2 T01930161
KOZW 241515Z AUTO 31004KT 7SM OVC012 19/16 A2992 RMK AO2 T01870157
KOZW 241455Z AUTO 30004KT 7SM OVC012 19/16 A2990 RMK AO2 T01880157
KOZW 241435Z AUTO 29004KT 10SM OVC012 19/15 A2988 RMK AO2 T01890154
KOZW 241415Z AUTO 30004KT 10SM OVC012 18/16 A2987 RMK AO2 T01810155
KOZW 241355Z AUTO 28006KT 7SM OVC007 18/15 A2986 RMK AO2 T01750153
KOZW 241335Z AUTO 27005KT 10SM OVC007 17/16 A2986 RMK AO2 T01730155
KOZW 241315Z AUTO 33003KT 7SM OVC007 17/15 A2985 RMK AO2 T01710152
KOZW 241255Z AUTO 29004KT 5SM BR OVC007 17/15 A2985 RMK AO2 T01680152
KOZW 241235Z AUTO 27004KT 5SM BR OVC007 17/15 A2984 RMK AO2 T01670151
KOZW 241215Z AUTO 26004KT 5SM BR OVC007 17/15 A2984 RMK AO2 T01660150
KOZW 241156Z AUTO 25006KT 7SM OVC007 17/15 A2984 RMK AO2 70003 T01650149 10186 20163
KOZW 241135Z AUTO 25005KT 10SM OVC009 16/15 A2982 RMK AO2 T01630146
KOZW 241115Z AUTO 26004KT 10SM SCT009 BKN120 17/15 A2982 RMK AO2 T01650145
KOZW 241055Z AUTO 27004KT 10SM SCT120 17/15 A2982 RMK AO2 T01650145
KOZW 241035Z AUTO 26005KT 10SM CLR 17/15 A2982 RMK AO2 T01650145
KOZW 241015Z AUTO 26003KT 10SM CLR 17/15 A2982 RMK AO2 T01650146
KOZW 240955Z AUTO 25005KT 10SM SCT100 17/15 A2982 RMK AO2 T01680148
KOZW 240935Z AUTO 23004KT 10SM SCT060 SCT090 17/15 A2980 RMK AO2 T01670149
KOZW 240915Z AUTO 00000KT 10SM SCT044 BKN060 17/15 A2980 RMK AO2 T01730150
KOZW 240855Z AUTO 28003KT 10SM SCT024 BKN044 OVC060 18/15 A2980 RMK AO2 T01760151
KOZW 240835Z AUTO 26005KT 10SM BKN024 OVC042 18/15 A2980 RMK AO2 T01770154
KOZW 240815Z AUTO 26005KT 10SM OVC024 18/16 A2980 RMK AO2 T01800160
KOZW 240755Z AUTO 25007KT 10SM OVC022 18/16 A2980 RMK AO2 T01830164
KOZW 240735Z AUTO 25005KT 10SM OVC022 19/17 A2980 RMK AO2 T01850170
KOZW 240715Z AUTO 27004KT 10SM OVC024 19/17 A2979 RMK AO2 T01860170
KOZW 240655Z AUTO 28003KT 10SM OVC024 19/17 A2979 RMK AO2 T01860172
KOZW 240635Z AUTO 25003KT 7SM OVC024 19/17 A2980 RMK AO2 T01850174
KOZW 240615Z AUTO 24003KT 7SM OVC024 18/18 A2980 RMK AO2 T01830175
KOZW 240555Z AUTO 00000KT 5SM BR SCT027 BKN032 BKN060 18/17 A2980 RMK AO2 T01800173 10222 20176 402450173
KOZW 240535Z AUTO 00000KT 5SM BR SCT085 18/17 A2979 RMK AO2 T01780169
KOZW 240515Z AUTO 00000KT 7SM BKN085 19/17 A2979 RMK AO2 T01880174
KOZW 240455Z AUTO 00000KT 10SM SCT035 BKN065 OVC085 19/18 A2979 RMK AO2 T01920175
KOZW 240435Z AUTO 00000KT 10SM BKN037 BKN042 OVC065 19/18 A2979 RMK AO2 T01940175
KOZW 240415Z AUTO 29003KT 10SM SCT022 OVC037 20/18 A2979 RMK AO2 T01960176
KOZW 240355Z AUTO 30003KT 10SM SCT018 BKN022 OVC037 20/18 A2979 RMK AO2 T01970176
KOZW 240335Z AUTO 00000KT 10SM BKN018 OVC038 20/18 A2979 RMK AO2 T01980175
KOZW 240316Z AUTO 33003KT 10SM BKN018 BKN031 OVC038 20/18 A2978 RMK AO2 T01980176
KOZW 240255Z AUTO 32003KT 10SM SCT018 BKN029 OVC065 20/18 A2978 RMK AO2 T02000175
KOZW 240235Z AUTO 00000KT 10SM BKN020 OVC026 20/18 A2978 RMK AO2 T02020177
KOZW 240215Z AUTO 00000KT 10SM SCT018 BKN023 OVC031 21/18 A2978 RMK AO2 T02060176
KOZW 240155Z AUTO 00000KT 10SM BKN021 BKN028 OVC032 21/17 A2977 RMK AO2 T02100172
KOZW 240135Z AUTO 00000KT 10SM BKN021 OVC026 21/17 A2977 RMK AO2 T02080172
KOZW 240115Z AUTO 32003KT 10SM BKN025 21/17 A2976 RMK AO2 T02060170
KOZW 240055Z AUTO 31004KT 10SM BKN025 21/17 A2976 RMK AO2 T02120173
KOZW 240036Z AUTO 30005KT 10SM OVC022 22/18 A2975 RMK AO2 T02170175
KOZW 240015Z AUTO 27005KT 10SM BKN022 22/17 A2975 RMK AO2 T02200172
KOZW 232355Z AUTO 29008KT 10SM CLR 23/17 A2974 RMK AO2 T02250169 10245 20220
KOZW 232335Z AUTO 27010KT 10SM CLR 23/17 A2974 RMK AO2 T02270167
KOZW 232315Z AUTO 28007KT 10SM CLR 23/17 A2974 RMK AO2 T02300171
KOZW 232255Z AUTO 30009KT 10SM SCT060 23/17 A2973 RMK AO2 T02290172
KOZW 232235Z AUTO 29010KT 10SM OVC060 23/18 A2974 RMK AO2 T02260176
KOZW 232215Z AUTO 27009KT 10SM OVC050 23/17 A2975 RMK AO2 T02260171
KOZW 232155Z AUTO 29008KT 10SM SCT050 BKN055 23/18 A2974 RMK AO2 T02300179
KOZW 232135Z AUTO 29008KT 10SM SCT041 OVC050 23/18 A2974 RMK AO2 T02260179
KOZW 232115Z AUTO 26010KT 10SM SCT022 BKN043 OVC050 23/18 A2974 RMK AO2 T02280177
KOZW 232055Z AUTO 27011KT 10SM SCT024 OVC041 23/18 A2974 RMK AO2 T02330180
KOZW 232035Z AUTO 27008KT 10SM SCT024 BKN030 OVC041 24/18 A2973 RMK AO2 T02430179
KOZW 232016Z AUTO 26008KT 10SM BKN024 BKN030 OVC038 24/18 A2972 RMK AO2 T02410180
KOZW 231955Z AUTO 28003KT 10SM SCT022 SCT032 OVC040 24/18 A2971 RMK AO2 T02380178
KOZW 231935Z AUTO 30004KT 10SM SCT022 OVC044 24/18 A2971 RMK AO2 T02380175
KOZW 231915Z AUTO 27004KT 10SM SCT038 OVC044 23/18 A2971 RMK AO2 T02300178
KOZW 231855Z AUTO 27005KT 10SM SCT018 BKN024 OVC036 23/18 A2971 RMK AO2 T02280178
KOZW 231835Z AUTO 29005KT 7SM BKN018 BKN027 OVC034 23/18 A2971 RMK AO2 T02310183
KOZW 231815Z AUTO 00000KT 7SM BKN016 OVC030 23/18 A2971 RMK AO2 T02250179
KOZW 231755Z AUTO 00000KT 7SM OVC030 23/18 A2971 RMK AO2 P0001 60003 T02250182 10226 20182
KOZW 231735Z AUTO 31003KT 7SM BKN009 SCT016 OVC028 22/18 A2972 RMK AO2 T02180180
KOZW 231715Z AUTO 29006KT 5SM HZ BKN009 BKN026 22/19 A2971 RMK AO2 T02160186
KOZW 231655Z AUTO 29007KT 5SM BR BKN007 BKN012 OVC024 21/19 A2972 RMK AO2 T02100192
KOZW 231635Z AUTO 33008KT 4SM BR BKN009 OVC016 20/18 A2972 RMK AO2 T01970183
KOZW 231615Z AUTO 33005KT 4SM -RA BKN011 OVC018 20/18 A2973 RMK AO2 T01970182
KOZW 231555Z AUTO 30009KT 5SM RA BKN013 OVC018 21/19 A2973 RMK AO2 T02060185
KOZW 231535Z AUTO 28003KT 7SM BKN013 OVC020 21/19 A2973 RMK AO2 T02070185
KOZW 231515Z AUTO 00000KT 7SM SCT007 OVC018 21/19 A2971 RMK AO2 T02080185
KOZW 231455Z AUTO 00000KT 5SM BR SCT007 OVC018 21/19 A2971 RMK AO2 P0001 60002 T02050188
KOZW 231435Z AUTO 00000KT 3SM BR SCT005 SCT009 OVC018 20/19 A2970 RMK AO2 P0001 T01990186
KOZW 231416Z AUTO 33003KT 2 1/2SM BR BKN005 BKN010 OVC018 20/19 A2971 RMK AO2 T01960186
KOZW 231355Z AUTO 31004KT 2 1/2SM BR OVC005 20/19 A2971 RMK AO2 T01950186
KOZW 231335Z AUTO 29003KT 5SM BR OVC005 19/19 A2971 RMK AO2 T01920186
KOZW 231315Z AUTO 00000KT 2 1/2SM BR OVC003 19/19 A2971 RMK AO2 T01900185
KOZW 231255Z AUTO 00000KT 2SM BR OVC003 19/18 A2970 RMK AO2 P0001 T01860182
KOZW 231235Z AUTO 00000KT 2SM BR OVC003 19/18 A2971 RMK AO2 T01850181
KOZW 231215Z AUTO 00000KT 1 3/4SM BR OVC003 18/18 A2970 RMK AO2 T01840180
KOZW 231155Z AUTO 00000KT 1SM RA OVC003 18/18 A2971 RMK AO2 P0001 60001 70004 T01810177 10182 20173
KOZW 231135Z AUTO 00000KT 1SM DZ OVC003 18/18 A2971 RMK AO2 P0001 T01800176
KOZW 231115Z AUTO 32003KT 1SM BR OVC003 18/18 A2971 RMK AO2 T01800176
KOZW 231055Z AUTO 00000KT 1 1/4SM BR OVC003 18/18 A2971 RMK AO2 T01800176
KOZW 231035Z AUTO 00000KT 2 1/2SM BR OVC005 18/18 A2970 RMK AO2 T01800176
KOZW 231015Z AUTO 00000KT 2 1/2SM BR BKN005 BKN009 OVC026 18/18 A2969 RMK AO2 T01780175